createdAt,value
2023-01-29T00:00:17.725Z,17.73
2023-01-29T00:02:46.080Z,22.15
2023-01-29T00:05:28.915Z,4.38
2023-01-29T00:07:58.028Z,5.30
2023-01-29T00:10:27.125Z,3.95
2023-01-29T00:12:55.576Z,4.25
2023-01-29T00:15:23.587Z,3.53
2023-01-29T00:17:51.696Z,4.15
2023-01-29T00:20:21.477Z,3.85
2023-01-29T00:22:49.544Z,4.07
2023-01-29T00:25:17.788Z,4.05
2023-01-29T00:27:45.962Z,4.75
2023-01-29T00:30:19.345Z,4.43
2023-01-29T00:32:48.059Z,4.40
2023-01-29T00:35:16.222Z,4.35
2023-01-29T00:37:45.855Z,3.60
2023-01-29T00:40:15.102Z,4.43
2023-01-29T00:43:18.108Z,4.15
2023-01-29T00:45:46.221Z,4.07
2023-01-29T00:48:14.349Z,4.13
2023-01-29T00:50:42.425Z,5.55
2023-01-29T00:53:11.923Z,4.30
2023-01-29T00:55:40.054Z,4.40
2023-01-29T00:58:08.166Z,4.60
2023-01-29T01:00:36.422Z,4.82
2023-01-29T01:03:06.625Z,4.05
2023-01-29T01:05:36.816Z,4.32
2023-01-29T01:08:26.682Z,4.15
2023-01-29T01:11:02.904Z,4.75
2023-01-29T01:13:33.129Z,2.90
2023-01-29T01:16:01.928Z,4.50
2023-01-29T01:18:31.905Z,4.78
2023-01-29T01:21:00.113Z,4.88
2023-01-29T01:23:28.225Z,4.80
2023-01-29T01:25:56.437Z,4.72
2023-01-29T01:28:26.278Z,4.15
2023-01-29T01:30:54.503Z,4.50
2023-01-29T01:33:22.765Z,5.70
2023-01-29T01:35:50.957Z,5.60
2023-01-29T01:38:19.126Z,11.55
2023-01-29T01:40:48.143Z,6.68
2023-01-29T01:43:16.186Z,7.45
2023-01-29T01:45:46.821Z,6.80
2023-01-29T01:48:21.477Z,5.55
2023-01-29T01:50:55.290Z,4.00
2023-01-29T01:53:30.611Z,5.00
2023-01-29T01:56:04.494Z,4.43
2023-01-29T01:58:38.055Z,4.75
2023-01-29T02:01:12.010Z,4.82
2023-01-29T02:04:04.878Z,4.25
2023-01-29T02:06:52.705Z,5.65
2023-01-29T02:09:32.606Z,5.80
2023-01-29T02:12:00.809Z,6.93
2023-01-29T02:14:28.960Z,4.80
2023-01-29T02:16:58.703Z,5.22
2023-01-29T02:19:43.173Z,4.03
2023-01-29T02:22:43.067Z,3.40
2023-01-29T02:25:46.126Z,3.20
2023-01-29T02:28:27.256Z,3.50
2023-01-29T02:31:09.504Z,4.78
2023-01-29T02:33:53.385Z,3.80
2023-01-29T02:36:36.959Z,3.47
2023-01-29T02:39:17.938Z,4.20
2023-01-29T02:42:12.198Z,3.92
2023-01-29T02:44:49.415Z,4.00
2023-01-29T02:47:24.007Z,3.90
2023-01-29T02:50:07.304Z,3.80
2023-01-29T02:52:49.755Z,4.20
2023-01-29T02:55:24.682Z,3.63
2023-01-29T02:58:01.845Z,3.70
2023-01-29T03:03:13.918Z,2.90
2023-01-29T03:05:53.411Z,1.97
2023-01-29T03:08:37.255Z,3.72
2023-01-29T03:11:08.172Z,3.08
2023-01-29T03:13:44.107Z,3.10
2023-01-29T03:16:23.154Z,4.18
2023-01-29T03:18:58.025Z,4.13
2023-01-29T03:21:55.310Z,3.72
2023-01-29T03:24:52.725Z,4.47
2023-01-29T03:27:43.586Z,3.58
2023-01-29T03:30:32.779Z,3.17
2023-01-29T03:33:08.954Z,3.38
2023-01-29T03:35:44.692Z,3.33
2023-01-29T03:38:13.290Z,4.55
2023-01-29T03:40:53.479Z,3.53
2023-01-29T03:43:33.254Z,4.13
2023-01-29T03:46:09.771Z,3.58
2023-01-29T03:48:48.280Z,3.88
2023-01-29T03:51:29.502Z,4.20
2023-01-29T03:54:08.138Z,4.30
2023-01-29T03:56:54.559Z,3.78
2023-01-29T03:59:36.625Z,4.40
2023-01-29T04:02:10.070Z,4.50
2023-01-29T04:04:43.170Z,4.07
2023-01-29T04:07:15.716Z,20.92
2023-01-29T04:09:50.776Z,5.75
2023-01-29T04:12:27.397Z,4.43
2023-01-29T04:14:59.721Z,5.43
2023-01-29T04:17:38.224Z,4.55
2023-01-29T04:20:10.470Z,3.97
2023-01-29T04:22:41.866Z,5.55
2023-01-29T04:25:16.434Z,4.43
2023-01-29T04:27:55.934Z,6.28
2023-01-29T04:30:35.325Z,4.15
2023-01-29T04:33:21.571Z,4.72
2023-01-29T04:36:08.988Z,5.57
2023-01-29T04:38:56.391Z,5.15
2023-01-29T04:41:34.058Z,5.05
2023-01-29T04:44:12.067Z,5.00
2023-01-29T04:46:53.937Z,5.28
2023-01-29T04:49:36.578Z,4.80
2023-01-29T04:52:16.714Z,4.75
2023-01-29T04:55:02.456Z,5.72
2023-01-29T04:57:40.889Z,4.10
2023-01-29T05:00:18.005Z,4.68
2023-01-29T05:02:47.666Z,4.18
2023-01-29T05:05:20.952Z,4.57
2023-01-29T05:07:51.489Z,4.93
2023-01-29T05:10:24.129Z,4.70
2023-01-29T05:13:01.466Z,5.50
2023-01-29T05:15:38.093Z,4.45
2023-01-29T05:18:08.878Z,4.57
2023-01-29T05:20:41.005Z,4.82
2023-01-29T05:23:17.149Z,6.25
2023-01-29T05:25:46.794Z,5.20
2023-01-29T05:28:16.670Z,5.25
2023-01-29T05:30:47.233Z,4.63
2023-01-29T05:33:20.107Z,5.47
2023-01-29T05:35:48.854Z,4.90
2023-01-29T05:38:20.004Z,4.70
2023-01-29T05:40:48.691Z,4.80
2023-01-29T05:43:19.714Z,4.85
2023-01-29T05:45:54.612Z,5.72
2023-01-29T05:48:23.075Z,5.53
2023-01-29T05:50:51.434Z,5.60
2023-01-29T05:53:21.026Z,6.18
2023-01-29T05:55:50.215Z,6.85
2023-01-29T05:58:19.654Z,6.70
2023-01-29T06:00:47.806Z,5.72
2023-01-29T06:03:16.456Z,5.85
2023-01-29T06:05:44.659Z,5.45
2023-01-29T06:08:13.272Z,8.00
2023-01-29T06:10:42.789Z,7.05
2023-01-29T06:13:10.850Z,6.20
2023-01-29T06:15:41.735Z,14.50
2023-01-29T06:18:09.894Z,8.70
2023-01-29T06:20:38.856Z,6.93
2023-01-29T06:23:07.115Z,6.43
2023-01-29T06:25:35.222Z,7.15
2023-01-29T06:28:05.176Z,6.57
2023-01-29T06:30:33.322Z,7.13
2023-01-29T06:33:02.927Z,6.68
2023-01-29T06:35:31.216Z,10.35
2023-01-29T06:37:59.284Z,8.32
2023-01-29T06:40:27.426Z,7.18
2023-01-29T06:42:55.462Z,8.10
2023-01-29T06:45:25.180Z,8.45
2023-01-29T06:47:53.375Z,9.70
2023-01-29T06:50:21.443Z,9.43
2023-01-29T06:52:49.573Z,11.80
2023-01-29T06:55:18.157Z,8.27
2023-01-29T06:57:46.212Z,9.63
2023-01-29T07:00:17.292Z,8.43
2023-01-29T07:02:50.113Z,16.02
2023-01-29T07:05:18.284Z,14.10
2023-01-29T07:07:46.398Z,12.63
2023-01-29T07:10:14.755Z,13.30
2023-01-29T07:12:43.132Z,10.18
2023-01-29T07:15:12.752Z,10.88
2023-01-29T07:17:40.951Z,9.13
2023-01-29T07:20:12.502Z,12.43
2023-01-29T07:22:40.533Z,16.52
2023-01-29T07:25:10.701Z,14.23
2023-01-29T07:27:38.797Z,12.75
2023-01-29T07:30:09.077Z,12.73
2023-01-29T07:32:37.185Z,8.90
2023-01-29T07:35:06.051Z,8.95
2023-01-29T07:37:35.648Z,8.93
2023-01-29T07:40:05.210Z,11.18
2023-01-29T07:42:33.375Z,10.13
2023-01-29T07:45:01.479Z,11.65
2023-01-29T07:47:29.528Z,9.77
2023-01-29T07:49:57.575Z,10.05
2023-01-29T07:52:25.761Z,9.07
2023-01-29T07:54:55.261Z,10.18
2023-01-29T07:57:23.897Z,12.27
2023-01-29T07:59:52.379Z,10.18
2023-01-29T08:02:21.665Z,12.35
2023-01-29T08:04:49.764Z,11.00
2023-01-29T08:07:17.894Z,13.90
2023-01-29T08:09:48.148Z,11.65
2023-01-29T08:12:17.859Z,11.70
2023-01-29T08:14:45.972Z,12.25
2023-01-29T08:17:14.868Z,12.65
2023-01-29T08:19:42.956Z,12.73
2023-01-29T08:22:11.003Z,11.02
2023-01-29T08:24:53.337Z,9.55
2023-01-29T08:27:28.949Z,12.27
2023-01-29T08:29:57.160Z,8.93
2023-01-29T08:32:25.236Z,8.48
2023-01-29T08:34:53.579Z,8.55
2023-01-29T08:37:21.637Z,8.38
2023-01-29T08:39:49.768Z,8.07
2023-01-29T08:42:17.829Z,8.70
2023-01-29T08:44:47.467Z,8.05
2023-01-29T08:47:15.939Z,9.70
2023-01-29T08:49:43.941Z,7.85
2023-01-29T08:52:12.074Z,6.28
2023-01-29T08:54:40.136Z,6.22
2023-01-29T08:57:08.143Z,5.55
2023-01-29T08:59:36.345Z,5.47
2023-01-29T09:02:05.754Z,5.13
2023-01-29T09:04:33.925Z,5.75
2023-01-29T09:07:01.995Z,5.03
2023-01-29T09:09:30.018Z,5.47
2023-01-29T09:11:58.078Z,6.63
2023-01-29T09:14:27.639Z,6.43
2023-01-29T09:16:55.690Z,5.82
2023-01-29T09:19:25.272Z,6.20
2023-01-29T09:21:53.491Z,6.75
2023-01-29T09:24:21.638Z,7.75
2023-01-29T09:26:49.758Z,6.45
2023-01-29T09:29:17.798Z,6.60
2023-01-29T09:31:46.039Z,7.72
2023-01-29T09:34:14.540Z,7.05
2023-01-29T09:36:44.320Z,7.20
2023-01-29T09:39:12.361Z,8.63
2023-01-29T09:41:54.327Z,7.50
2023-01-29T09:44:40.868Z,7.45
2023-01-29T09:47:16.832Z,9.38
2023-01-29T09:49:51.231Z,9.27
2023-01-29T09:52:26.802Z,10.00
2023-01-29T09:55:05.222Z,8.70
2023-01-29T09:57:42.568Z,8.82
2023-01-29T10:00:18.805Z,9.95
2023-01-29T10:03:12.060Z,7.60
2023-01-29T10:06:23.311Z,6.72
2023-01-29T10:09:31.322Z,7.18
2023-01-29T10:12:15.396Z,8.57
2023-01-29T10:14:59.508Z,7.60
2023-01-29T10:17:54.450Z,6.93
2023-01-29T10:20:55.976Z,8.23
2023-01-29T10:23:33.344Z,9.45
2023-01-29T10:26:03.972Z,8.65
2023-01-29T10:28:42.725Z,8.27
2023-01-29T10:31:18.930Z,9.02
2023-01-29T10:34:02.540Z,8.70
2023-01-29T10:36:39.668Z,8.90
2023-01-29T10:39:17.388Z,10.65
2023-01-29T10:42:19.713Z,12.23
2023-01-29T10:45:07.475Z,11.05
2023-01-29T10:50:52.846Z,10.05
2023-01-29T10:53:54.922Z,10.77
2023-01-29T10:56:46.006Z,10.43
2023-01-29T10:59:42.546Z,12.38
2023-01-29T11:02:19.523Z,11.13
2023-01-29T11:04:47.939Z,12.88
2023-01-29T11:07:22.852Z,12.25
2023-01-29T11:09:58.761Z,11.95
2023-01-29T11:12:33.477Z,12.15
2023-01-29T11:15:08.535Z,13.05
2023-01-29T11:17:36.614Z,12.43
2023-01-29T11:20:27.808Z,12.88
2023-01-29T11:22:56.697Z,11.95
2023-01-29T11:25:24.845Z,13.10
2023-01-29T11:27:57.040Z,12.30
2023-01-29T11:30:31.589Z,14.80
2023-01-29T11:33:10.102Z,12.77
2023-01-29T11:35:38.776Z,11.80
2023-01-29T11:38:22.727Z,15.27
2023-01-29T11:40:51.438Z,12.38
2023-01-29T11:43:30.966Z,14.38
2023-01-29T11:46:05.180Z,13.35
2023-01-29T11:48:43.072Z,12.60
2023-01-29T11:51:22.184Z,15.75
2023-01-29T11:53:56.778Z,13.85
2023-01-29T11:56:31.098Z,13.63
2023-01-29T11:59:02.272Z,11.85
2023-01-29T12:01:38.123Z,12.70
2023-01-29T12:04:21.478Z,12.07
2023-01-29T12:06:53.802Z,13.15
2023-01-29T12:09:27.363Z,13.65
2023-01-29T12:11:55.844Z,12.32
2023-01-29T12:14:30.190Z,12.48
2023-01-29T12:17:05.136Z,12.98
2023-01-29T12:19:40.331Z,14.90
2023-01-29T12:22:18.896Z,15.52
2023-01-29T12:24:56.090Z,15.80
2023-01-29T12:30:07.252Z,15.65
2023-01-29T12:32:49.733Z,17.17
2023-01-29T12:35:26.052Z,16.23
2023-01-29T12:38:03.045Z,15.53
2023-01-29T12:40:36.016Z,16.17
2023-01-29T12:43:14.909Z,18.25
2023-01-29T12:45:45.771Z,16.30
2023-01-29T12:48:24.504Z,15.52
2023-01-29T12:50:56.749Z,19.58
2023-01-29T12:53:32.735Z,29.95
2023-01-29T12:56:06.740Z,18.30
2023-01-29T12:58:43.189Z,14.55
2023-01-29T13:01:16.703Z,24.48
2023-01-29T13:03:56.814Z,17.15
2023-01-29T13:06:31.415Z,16.77
2023-01-29T13:09:04.442Z,17.92
2023-01-29T13:11:41.248Z,18.98
2023-01-29T13:14:21.990Z,19.52
2023-01-29T13:16:56.561Z,17.10
2023-01-29T13:19:33.614Z,17.05
2023-01-29T13:22:06.340Z,17.10
2023-01-29T13:24:41.165Z,16.05
2023-01-29T13:27:22.024Z,18.20
2023-01-29T13:29:50.673Z,16.25
2023-01-29T13:32:26.147Z,16.17
2023-01-29T13:34:59.232Z,18.02
2023-01-29T13:37:34.283Z,18.20
2023-01-29T13:40:06.670Z,14.52
2023-01-29T13:42:45.468Z,16.20
2023-01-29T13:45:23.861Z,14.60
2023-01-29T13:47:53.893Z,16.13
2023-01-29T13:50:35.603Z,16.85
2023-01-29T13:53:08.283Z,16.15
2023-01-29T13:55:39.366Z,15.20
2023-01-29T13:58:08.850Z,16.88
2023-01-29T14:00:59.118Z,16.00
2023-01-29T14:04:05.944Z,16.25
2023-01-29T14:06:47.214Z,16.90
2023-01-29T14:09:57.010Z,16.20
2023-01-29T14:12:44.947Z,16.20
2023-01-29T14:15:34.086Z,16.92
2023-01-29T14:18:21.072Z,15.10
2023-01-29T14:21:04.226Z,15.32
2023-01-29T14:23:46.668Z,17.27
2023-01-29T14:26:33.041Z,16.73
2023-01-29T14:29:07.825Z,15.93
2023-01-29T14:31:44.816Z,15.20
2023-01-29T14:34:31.292Z,14.50
2023-01-29T14:37:05.513Z,16.38
2023-01-29T14:39:43.833Z,17.35
2023-01-29T14:42:26.919Z,16.90
2023-01-29T14:45:01.582Z,16.15
2023-01-29T14:48:36.617Z,15.45
2023-01-29T14:51:12.145Z,15.10
2023-01-29T14:54:00.504Z,16.17
2023-01-29T14:56:37.141Z,14.57
2023-01-29T14:59:17.690Z,14.50
2023-01-29T15:01:53.455Z,14.82
2023-01-29T15:04:27.907Z,13.43
2023-01-29T15:07:02.221Z,13.98
2023-01-29T15:09:40.946Z,14.88
2023-01-29T15:12:26.970Z,14.00
2023-01-29T15:15:07.015Z,15.75
2023-01-29T15:17:44.210Z,14.30
2023-01-29T15:23:00.560Z,12.23
2023-01-29T15:25:37.120Z,13.45
2023-01-29T15:28:11.246Z,11.70
2023-01-29T15:30:39.819Z,13.15
2023-01-29T15:33:12.313Z,13.13
2023-01-29T15:35:43.398Z,10.27
2023-01-29T15:38:19.644Z,11.32
2023-01-29T15:40:59.547Z,12.40
2023-01-29T15:43:31.746Z,11.13
2023-01-29T15:46:04.067Z,10.63
2023-01-29T15:48:36.476Z,9.65
2023-01-29T15:51:08.831Z,10.43
2023-01-29T15:53:43.726Z,9.32
2023-01-29T15:56:14.137Z,9.18
2023-01-29T15:58:44.331Z,9.70
2023-01-29T16:01:12.680Z,10.02
2023-01-29T16:03:41.335Z,10.70
2023-01-29T16:06:12.163Z,10.90
2023-01-29T16:08:42.437Z,10.88
2023-01-29T16:11:11.448Z,9.43
2023-01-29T16:13:44.684Z,11.23
2023-01-29T16:16:26.639Z,11.90
2023-01-29T16:19:01.136Z,10.57
2023-01-29T16:21:37.834Z,10.00
2023-01-29T16:24:11.815Z,12.57
2023-01-29T16:26:46.054Z,12.05
2023-01-29T16:29:19.878Z,12.05
2023-01-29T16:31:52.097Z,11.35
2023-01-29T16:34:26.838Z,10.90
2023-01-29T16:36:57.102Z,11.20
2023-01-29T16:39:29.953Z,12.43
2023-01-29T16:42:28.742Z,12.70
2023-01-29T16:45:02.456Z,12.50
2023-01-29T16:47:37.490Z,12.23
2023-01-29T16:50:36.102Z,13.68
2023-01-29T16:53:13.883Z,11.93
2023-01-29T16:55:46.862Z,12.45
2023-01-29T16:58:19.223Z,13.60
2023-01-29T17:00:53.269Z,13.95
2023-01-29T17:03:22.395Z,14.43
2023-01-29T17:05:51.610Z,12.75
2023-01-29T17:08:26.540Z,12.85
2023-01-29T17:10:55.067Z,14.73
2023-01-29T17:13:30.349Z,17.10
2023-01-29T17:16:04.583Z,14.43
2023-01-29T17:18:33.091Z,12.95
2023-01-29T17:21:01.097Z,15.40
2023-01-29T17:23:29.341Z,14.75
2023-01-29T17:25:57.357Z,14.55
2023-01-29T17:28:26.176Z,14.35
2023-01-29T17:31:05.811Z,14.25
2023-01-29T17:33:40.421Z,14.02
2023-01-29T17:36:13.463Z,14.82
2023-01-29T17:38:42.568Z,16.42
2023-01-29T17:41:19.268Z,15.80
2023-01-29T17:43:47.326Z,15.85
2023-01-29T17:46:17.671Z,13.77
2023-01-29T17:48:49.200Z,14.57
2023-01-29T17:51:19.280Z,16.65
2023-01-29T17:53:47.786Z,14.52
2023-01-29T17:56:27.662Z,14.38
2023-01-29T17:58:55.802Z,14.98
2023-01-29T18:01:24.010Z,14.25
2023-01-29T18:03:53.653Z,13.80
2023-01-29T18:06:29.032Z,13.88
2023-01-29T18:08:59.001Z,14.68
2023-01-29T18:11:27.132Z,15.43
2023-01-29T18:13:55.666Z,15.30
2023-01-29T18:16:25.910Z,14.75
2023-01-29T18:18:55.452Z,15.90
2023-01-29T18:21:23.735Z,18.00
2023-01-29T18:23:51.779Z,18.63
2023-01-29T18:26:19.818Z,15.27
2023-01-29T18:28:48.052Z,17.15
2023-01-29T18:31:16.161Z,16.88
2023-01-29T18:33:44.197Z,16.77
2023-01-29T18:36:13.818Z,18.48
2023-01-29T18:38:41.905Z,15.63
2023-01-29T18:41:12.083Z,17.08
2023-01-29T18:43:42.970Z,16.60
2023-01-29T18:46:11.448Z,15.02
2023-01-29T18:48:41.762Z,18.50
2023-01-29T18:51:11.176Z,16.23
2023-01-29T18:53:40.581Z,15.63
2023-01-29T18:56:09.389Z,16.20
2023-01-29T18:58:38.155Z,17.33
2023-01-29T19:01:11.872Z,16.98
2023-01-29T19:03:41.581Z,15.07
2023-01-29T19:06:12.491Z,15.20
2023-01-29T19:08:43.846Z,15.60
2023-01-29T19:11:12.583Z,15.63
2023-01-29T19:13:42.447Z,16.50
2023-01-29T19:16:12.621Z,17.38
2023-01-29T19:18:40.977Z,18.33
2023-01-29T19:21:10.949Z,17.10
2023-01-29T19:23:39.167Z,16.80
2023-01-29T19:26:09.218Z,15.40
2023-01-29T19:28:37.339Z,18.27
2023-01-29T19:31:05.949Z,16.33
2023-01-29T19:33:34.340Z,15.20
2023-01-29T19:36:03.369Z,17.73
2023-01-29T19:38:34.927Z,16.13
2023-01-29T19:41:02.978Z,15.70
2023-01-29T19:43:34.849Z,14.48
2023-01-29T19:46:03.746Z,16.15
2023-01-29T19:48:31.902Z,15.35
2023-01-29T19:51:04.444Z,16.77
2023-01-29T19:53:33.056Z,16.70
2023-01-29T19:56:03.511Z,17.65
2023-01-29T19:58:34.268Z,15.93
2023-01-29T20:01:05.514Z,13.32
2023-01-29T20:03:34.179Z,14.38
2023-01-29T20:06:08.812Z,13.50
2023-01-29T20:08:37.170Z,15.15
2023-01-29T20:11:06.475Z,16.88
2023-01-29T20:13:35.953Z,13.75
2023-01-29T20:16:05.395Z,15.48
2023-01-29T20:18:33.719Z,15.05
2023-01-29T20:21:09.347Z,12.80
2023-01-29T20:23:39.803Z,13.55
2023-01-29T20:26:10.195Z,11.85
2023-01-29T20:28:40.147Z,14.15
2023-01-29T20:31:10.160Z,14.38
2023-01-29T20:33:39.689Z,12.98
2023-01-29T20:36:11.623Z,14.60
2023-01-29T20:38:39.778Z,12.63
2023-01-29T20:41:11.923Z,13.15
2023-01-29T20:43:41.868Z,13.70
2023-01-29T20:46:10.749Z,12.45
2023-01-29T20:48:39.008Z,12.93
2023-01-29T20:51:10.286Z,12.90
2023-01-29T20:53:38.884Z,13.10
2023-01-29T20:56:08.429Z,13.95
2023-01-29T20:58:37.012Z,13.82
2023-01-29T21:01:11.127Z,14.48
2023-01-29T21:03:40.597Z,14.10
2023-01-29T21:06:10.021Z,14.05
2023-01-29T21:08:39.584Z,13.13
2023-01-29T21:11:10.434Z,13.23
2023-01-29T21:13:39.199Z,13.18
2023-01-29T21:16:11.297Z,12.25
2023-01-29T21:18:39.585Z,12.80
2023-01-29T21:21:07.613Z,13.18
2023-01-29T21:23:35.612Z,14.52
2023-01-29T21:26:05.572Z,14.10
2023-01-29T21:28:34.987Z,14.82
2023-01-29T21:31:10.437Z,11.68
2023-01-29T21:33:39.255Z,14.30
2023-01-29T21:36:10.048Z,14.40
2023-01-29T21:38:38.212Z,13.50
2023-01-29T21:41:09.991Z,14.32
2023-01-29T21:43:37.720Z,14.75
2023-01-29T21:46:11.837Z,12.70
2023-01-29T21:48:41.511Z,14.57
2023-01-29T21:51:09.916Z,13.98
2023-01-29T21:53:38.029Z,16.13
2023-01-29T21:56:07.574Z,15.18
2023-01-29T21:58:35.668Z,12.68
2023-01-29T22:01:18.560Z,15.07
2023-01-29T22:03:53.229Z,15.15
2023-01-29T22:06:21.376Z,15.90
2023-01-29T22:08:49.993Z,16.88
2023-01-29T22:11:18.427Z,16.95
2023-01-29T22:13:47.083Z,17.20
2023-01-29T22:16:15.118Z,16.65
2023-01-29T22:18:43.275Z,16.65
2023-01-29T22:21:12.722Z,16.58
2023-01-29T22:23:40.796Z,17.17
2023-01-29T22:26:09.907Z,16.05
2023-01-29T22:28:38.142Z,17.13
2023-01-29T22:31:07.242Z,21.38
2023-01-29T22:33:35.872Z,17.85
2023-01-29T22:36:04.855Z,17.35
2023-01-29T22:38:34.217Z,18.20
2023-01-29T22:41:04.611Z,19.30
2023-01-29T22:43:32.646Z,18.77
2023-01-29T22:46:00.748Z,17.88
2023-01-29T22:48:30.584Z,17.90
2023-01-29T22:51:11.255Z,16.17
2023-01-29T22:53:43.195Z,17.02
2023-01-29T22:56:12.539Z,18.13
2023-01-29T22:58:41.144Z,16.23
2023-01-29T23:01:09.903Z,16.77
2023-01-29T23:03:38.204Z,17.88
2023-01-29T23:06:06.307Z,18.63
2023-01-29T23:08:34.675Z,17.13
2023-01-29T23:11:15.039Z,15.50
2023-01-29T23:13:44.417Z,17.38
2023-01-29T23:16:12.824Z,16.17
2023-01-29T23:18:40.890Z,17.88
2023-01-29T23:21:09.921Z,16.42
2023-01-29T23:23:39.162Z,19.45
2023-01-29T23:26:29.775Z,12.88
2023-01-29T23:28:57.985Z,17.70
2023-01-29T23:31:26.510Z,15.40
2023-01-29T23:33:54.534Z,17.50
2023-01-29T23:36:23.043Z,18.08
2023-01-29T23:38:51.115Z,18.48
2023-01-29T23:41:21.195Z,16.80
2023-01-29T23:43:49.251Z,16.60
2023-01-29T23:46:17.266Z,15.85
2023-01-29T23:48:45.323Z,17.27
2023-01-29T23:51:13.280Z,19.15
2023-01-29T23:53:41.807Z,17.17
2023-01-29T23:56:12.548Z,17.15
2023-01-29T23:58:42.107Z,17.95
